createdAt,value
2018-05-10T14:44:19.402Z,34.40
2018-05-10T14:46:49.515Z,34.20
2018-05-10T14:52:54.791Z,34.30
2018-05-10T14:59:00.466Z,34.30
2018-05-10T15:01:30.379Z,34.20
2018-05-10T15:04:00.262Z,34.30
2018-05-10T15:06:29.223Z,34.30
2018-05-10T15:08:58.354Z,34.30
2018-05-10T15:11:27.895Z,34.30
2018-05-10T15:13:57.357Z,34.40
2018-05-10T15:20:04.275Z,34.30
2018-05-10T15:22:33.562Z,34.30
2018-05-10T15:25:03.386Z,34.10
2018-05-10T15:27:33.368Z,34.00
2018-05-10T15:30:02.744Z,34.00
2018-05-10T15:32:32.718Z,33.90
2018-05-10T15:35:02.270Z,33.90
2018-05-10T15:37:31.390Z,33.80
2018-05-10T15:40:00.638Z,33.70
2018-05-10T15:42:30.640Z,33.90
2018-05-10T15:45:00.011Z,33.80
2018-05-10T15:47:29.292Z,33.90
2018-05-10T15:49:58.658Z,33.80
2018-05-10T15:52:27.879Z,33.80
2018-05-10T15:54:58.012Z,33.80
2018-05-10T15:57:27.884Z,33.70
2018-05-10T15:59:57.679Z,33.80
2018-05-10T16:02:26.671Z,33.70
2018-05-10T16:04:55.806Z,33.70
2018-05-10T16:07:26.362Z,33.70
2018-05-10T16:09:56.104Z,33.70
2018-05-10T16:12:25.378Z,33.70
2018-05-10T16:14:54.251Z,33.60
2018-05-10T16:17:22.878Z,33.70
2018-05-10T16:19:51.728Z,33.70
2018-05-10T16:22:20.624Z,33.70
2018-05-10T16:24:50.132Z,33.70
2018-05-10T16:27:18.962Z,33.60
2018-05-10T16:29:47.706Z,33.70
2018-05-10T16:32:16.394Z,33.70
2018-05-10T16:34:45.081Z,33.70
2018-05-10T16:37:13.666Z,33.70
2018-05-10T16:39:42.454Z,33.60
2018-05-10T16:42:11.039Z,33.70
2018-05-10T16:44:39.774Z,33.60
2018-05-10T16:47:08.417Z,33.70
2018-05-10T16:49:37.101Z,33.70
2018-05-10T16:52:05.788Z,33.60
2018-05-10T16:54:34.683Z,33.60
2018-05-10T16:57:03.471Z,33.60
2018-05-10T16:59:32.307Z,33.60
2018-05-10T17:02:01.767Z,33.70
2018-05-10T17:04:30.498Z,33.70
2018-05-10T17:06:59.288Z,33.70
2018-05-10T17:09:29.003Z,33.70
2018-05-10T17:11:57.949Z,33.60
2018-05-10T17:14:27.664Z,33.70
2018-05-10T17:16:56.350Z,33.60
2018-05-10T17:19:25.855Z,33.60
2018-05-10T17:21:54.647Z,33.50
2018-05-10T17:24:24.663Z,33.60
2018-05-10T17:26:53.351Z,33.60
2018-05-10T17:29:22.139Z,33.60
2018-05-10T17:31:50.725Z,33.60
2018-05-10T17:34:19.354Z,33.60
2018-05-10T17:36:49.021Z,33.70
2018-05-10T17:39:17.810Z,33.70
2018-05-10T17:41:46.535Z,33.70
2018-05-10T17:44:15.335Z,33.70
2018-05-10T17:46:44.183Z,33.70
2018-05-10T17:49:12.765Z,33.70
2018-05-10T17:51:41.554Z,33.70
2018-05-10T17:54:10.344Z,33.60
2018-05-10T17:56:39.032Z,33.60
2018-05-10T17:59:07.821Z,33.50
2018-05-10T18:01:36.613Z,33.50
2018-05-10T18:04:05.400Z,33.60
2018-05-10T18:06:34.135Z,33.50
2018-05-10T18:09:02.983Z,33.50
2018-05-10T18:11:31.974Z,33.50
2018-05-10T18:14:01.240Z,33.50
2018-05-10T18:16:30.680Z,33.50
2018-05-10T18:18:59.675Z,33.60
2018-05-10T18:21:28.465Z,33.50
2018-05-10T18:23:57.255Z,33.40
2018-05-10T18:26:26.658Z,33.40
2018-05-10T18:28:55.243Z,33.40
2018-05-10T18:31:23.932Z,33.40
2018-05-10T18:33:52.619Z,33.40
2018-05-10T18:36:21.101Z,33.40
2018-05-10T18:38:49.769Z,33.40
2018-05-10T18:41:19.295Z,33.50
2018-05-10T18:43:49.006Z,33.50
2018-05-10T18:46:17.724Z,33.40
2018-05-10T18:48:46.428Z,33.40
2018-05-10T18:51:14.966Z,33.40
2018-05-10T18:53:43.755Z,33.40
2018-05-10T18:56:12.238Z,33.40
2018-05-10T18:58:41.027Z,33.40
2018-05-10T19:01:09.668Z,33.50
2018-05-10T19:03:38.402Z,33.40
2018-05-10T19:06:06.989Z,33.40
2018-05-10T19:08:35.778Z,33.50
2018-05-10T19:11:04.567Z,33.40
2018-05-10T19:13:32.970Z,33.40
2018-05-10T19:16:01.579Z,33.40
2018-05-10T19:18:30.327Z,33.40
2018-05-10T19:20:58.992Z,33.40
2018-05-10T19:23:27.485Z,33.40
2018-05-10T19:25:56.895Z,33.40
2018-05-10T19:28:26.607Z,33.30
2018-05-10T19:30:55.139Z,33.20
2018-05-10T19:33:24.087Z,33.30
2018-05-10T19:35:52.671Z,33.30
2018-05-10T19:38:21.355Z,33.40
2018-05-10T19:40:50.085Z,33.40
2018-05-10T19:43:18.778Z,33.40
2018-05-10T19:45:47.418Z,33.30
2018-05-10T19:48:16.255Z,33.30
2018-05-10T19:50:44.792Z,33.30
2018-05-10T19:53:13.685Z,33.20
2018-05-10T19:55:42.372Z,33.20
2018-05-10T19:58:10.855Z,33.20
2018-05-10T20:00:39.236Z,33.20
2018-05-10T20:03:07.819Z,33.10
2018-05-10T20:05:36.613Z,33.10
2018-05-10T20:08:05.299Z,33.10
2018-05-10T20:10:33.778Z,32.90
2018-05-10T20:13:02.262Z,32.90
2018-05-10T20:15:30.852Z,32.80
2018-05-10T20:17:59.636Z,32.70
2018-05-10T20:20:28.425Z,32.50
2018-05-10T20:22:56.907Z,32.30
2018-05-10T20:25:25.529Z,32.20
2018-05-10T20:27:54.018Z,32.20
2018-05-10T20:30:23.449Z,32.20
2018-05-10T20:32:51.965Z,32.10
2018-05-10T20:35:20.594Z,32.10
2018-05-10T20:37:49.135Z,32.10
2018-05-10T20:40:17.618Z,32.10
2018-05-10T20:42:46.305Z,32.10
2018-05-10T20:45:15.097Z,32.10
2018-05-10T20:47:43.781Z,32.10
2018-05-10T20:50:13.288Z,31.90
2018-05-10T20:52:41.974Z,31.90
2018-05-10T20:55:10.622Z,31.90
2018-05-10T20:57:39.247Z,31.80
2018-05-10T21:00:08.243Z,31.70
2018-05-10T21:02:36.828Z,31.70
2018-05-10T21:05:05.517Z,31.70
2018-05-10T21:07:34.075Z,31.70
2018-05-10T21:10:02.810Z,31.70
2018-05-10T21:12:41.509Z,31.70
2018-05-10T21:15:10.506Z,31.60
2018-05-10T21:17:39.035Z,31.60
2018-05-10T21:20:08.491Z,31.50
2018-05-10T21:22:37.022Z,31.40
2018-05-10T21:25:06.379Z,31.50
2018-05-10T21:27:34.907Z,31.50
2018-05-10T21:30:04.681Z,31.50
2018-05-10T21:32:34.489Z,31.40
2018-05-10T21:35:03.176Z,31.40
2018-05-10T21:37:31.863Z,31.30
2018-05-10T21:40:00.653Z,31.40
2018-05-10T21:42:29.237Z,31.30
2018-05-10T21:44:57.823Z,31.10
2018-05-10T21:47:26.511Z,31.10
2018-05-10T21:50:03.738Z,31.10
2018-05-10T21:52:32.387Z,31.20
2018-05-10T21:55:01.101Z,31.10
2018-05-10T21:57:29.861Z,31.00
2018-05-10T21:59:58.548Z,31.10
2018-05-10T22:02:26.928Z,31.10
2018-05-10T22:04:55.718Z,31.00
2018-05-10T22:07:24.405Z,31.00
2018-05-10T22:09:53.091Z,31.00
2018-05-10T22:12:21.676Z,30.90
2018-05-10T22:14:50.468Z,31.00
2018-05-10T22:17:19.974Z,30.90
2018-05-10T22:19:48.661Z,30.90
2018-05-10T22:22:17.290Z,31.00
2018-05-10T22:24:46.241Z,31.00
2018-05-10T22:27:14.928Z,31.00
2018-05-10T22:29:43.663Z,31.00
2018-05-10T22:32:12.814Z,30.90
2018-05-10T22:34:41.911Z,30.90
2018-05-10T22:37:10.598Z,30.80
2018-05-10T22:39:39.389Z,30.80
2018-05-10T22:42:08.281Z,30.80
2018-05-10T22:44:36.967Z,30.80
2018-05-10T22:47:05.657Z,30.80
2018-05-10T22:49:34.240Z,30.80
2018-05-10T22:52:02.826Z,30.80
2018-05-10T22:54:31.410Z,30.90
2018-05-10T22:57:00.098Z,30.80
2018-05-10T22:59:28.784Z,30.80
2018-05-10T23:01:57.369Z,30.70
2018-05-10T23:04:26.364Z,30.80
2018-05-10T23:06:54.949Z,30.70
2018-05-10T23:09:23.842Z,30.80
2018-05-10T23:11:53.653Z,30.70
2018-05-10T23:14:22.546Z,30.70
2018-05-10T23:16:51.234Z,30.70
2018-05-10T23:19:20.023Z,30.70
2018-05-10T23:21:48.609Z,30.70
2018-05-10T23:24:17.399Z,30.60
2018-05-10T23:26:46.188Z,30.70
2018-05-10T23:29:14.978Z,30.60
2018-05-10T23:31:43.665Z,30.60
2018-05-10T23:34:12.458Z,30.60
2018-05-10T23:36:41.962Z,30.50
2018-05-10T23:39:10.649Z,30.50
2018-05-10T23:41:39.340Z,30.60
2018-05-10T23:44:08.331Z,30.50
2018-05-10T23:46:37.019Z,30.60
2018-05-10T23:49:05.807Z,30.60
2018-05-10T23:51:34.393Z,30.50
2018-05-10T23:54:03.080Z,30.60
2018-05-10T23:56:31.665Z,30.60
2018-05-10T23:59:00.352Z,30.60
